Time;durP1;ratioP1;P1;durP2;ratioP2;P2;SDS_P1;SDS_P2;PMS_P1;PMS_P2;Temp;Humidity;BMP_temperature;BMP_pressure;BME280_temperature;BME280_humidity;BME280_pressure;Samples;Min_cycle;Max_cycle;Signal;HPM_P1;HPM_P2
2021/04/11 00:01:38;;;;;;;33.20;21.15;;;8.20;98.80;;;;;;5033287;28;20071;-78
2021/04/11 00:04:04;;;;;;;36.53;20.92;;;8.70;98.00;;;;;;5051276;28;20017;-81
2021/04/11 00:06:30;;;;;;;37.15;21.58;;;8.80;97.50;;;;;;5032950;28;20017;-80
2021/04/11 00:08:56;;;;;;;28.88;15.68;;;8.40;97.10;;;;;;5051510;28;20021;-80
2021/04/11 00:11:22;;;;;;;16.67;10.93;;;7.70;96.50;;;;;;5032608;28;20037;-81
2021/04/11 00:13:52;;;;;;;15.85;10.73;;;7.30;96.00;;;;;;5051230;28;20029;-79
2021/04/11 00:16:18;;;;;;;19.40;12.02;;;7.50;95.70;;;;;;5050048;28;20017;-82
2021/04/11 00:18:44;;;;;;;15.25;11.07;;;7.90;94.20;;;;;;5033521;28;20051;-81
2021/04/11 00:21:11;;;;;;;17.33;11.00;;;8.30;93.00;;;;;;5057684;28;20027;-79
2021/04/11 00:23:37;;;;;;;22.25;12.15;;;8.10;92.70;;;;;;5071170;28;20027;-79
2021/04/11 00:26:04;;;;;;;18.98;11.38;;;8.50;93.20;;;;;;5070866;28;20087;-81
2021/04/11 00:28:30;;;;;;;22.13;12.35;;;8.50;92.70;;;;;;5070927;28;20028;-81
2021/04/11 00:30:56;;;;;;;20.80;12.93;;;8.60;92.70;;;;;;5070564;28;20017;-82
2021/04/11 00:33:26;;;;;;;15.73;10.55;;;8.60;93.10;;;;;;5070942;28;20074;-81
2021/04/11 00:35:57;;;;;;;18.50;9.88;;;8.50;91.30;;;;;;5072010;28;20055;-81
2021/04/11 00:38:24;;;;;;;13.25;8.63;;;8.40;90.90;;;;;;5075597;28;20036;-80
2021/04/11 00:40:50;;;;;;;15.00;8.98;;;7.70;92.20;;;;;;5056775;28;20478;-78
2021/04/11 00:43:18;;;;;;;13.55;8.82;;;7.30;94.80;;;;;;5074904;28;20037;-81
2021/04/11 00:46:01;;;;;;;17.55;8.93;;;7.80;94.30;;;;;;5056385;28;20032;-78
2021/04/11 00:48:29;;;;;;;15.43;8.27;;;8.10;92.70;;;;;;5056649;28;20073;-81
2021/04/11 00:50:59;;;;;;;13.15;8.95;;;8.20;92.30;;;;;;5074297;28;20024;-80
2021/04/11 00:53:25;;;;;;;12.48;9.35;;;8.40;91.60;;;;;;5074445;28;20044;-80
2021/04/11 00:55:52;;;;;;;15.02;9.50;;;8.30;91.60;;;;;;5055547;28;20024;-82
2021/04/11 00:58:20;;;;;;;15.55;9.00;;;8.30;91.70;;;;;;5044171;28;20037;-80
2021/04/11 01:00:46;;;;;;;17.58;9.82;;;7.70;93.70;;;;;;5054454;28;20025;-80
2021/04/11 01:03:21;;;;;;;16.25;9.98;;;7.30;94.90;;;;;;5054431;28;20031;-76
2021/04/11 01:05:47;;;;;;;16.77;9.10;;;7.30;95.90;;;;;;5054214;28;20029;-79
2021/04/11 01:08:17;;;;;;;13.48;8.48;;;7.60;95.10;;;;;;5054738;28;20024;-79
2021/04/11 01:11:03;;;;;;;12.60;8.90;;;7.40;94.30;;;;;;5054264;28;20389;-79
2021/04/11 01:13:31;;;;;;;11.18;8.85;;;7.50;94.70;;;;;;5036610;28;20151;-80
2021/04/11 01:15:57;;;;;;;14.25;8.85;;;7.50;93.90;;;;;;5053268;28;20032;-78
2021/04/11 01:18:23;;;;;;;11.18;8.55;;;7.50;94.60;;;;;;5054658;28;20025;-78
2021/04/11 01:20:49;;;;;;;14.10;9.02;;;7.30;94.80;;;;;;5038555;28;20345;-79
2021/04/11 01:23:41;;;;;;;13.85;9.10;;;7.20;95.40;;;;;;5074200;28;20460;-78
2021/04/11 01:26:07;;;;;;;13.88;8.82;;;7.10;95.40;;;;;;5051061;28;20037;-77
2021/04/11 01:28:39;;;;;;;12.48;8.85;;;7.40;95.70;;;;;;5074227;28;20020;-79
2021/04/11 01:31:06;;;;;;;19.17;9.20;;;7.40;94.50;;;;;;5073675;28;20016;-77
2021/04/11 01:33:42;;;;;;;12.23;8.00;;;7.40;94.30;;;;;;5074303;28;20012;-78
2021/04/11 01:36:11;;;;;;;14.00;8.07;;;7.10;95.00;;;;;;5073333;28;20360;-79
2021/04/11 01:38:38;;;;;;;10.35;7.38;;;7.30;94.60;;;;;;5074131;28;20028;-79
2021/04/11 01:41:16;;;;;;;12.10;8.20;;;7.50;94.20;;;;;;5073185;28;20009;-79
2021/04/11 01:43:43;;;;;;;14.20;8.68;;;7.30;94.50;;;;;;5074173;28;20021;-79
2021/04/11 01:46:10;;;;;;;12.40;7.68;;;7.60;94.60;;;;;;5055243;28;20020;-80
2021/04/11 01:48:37;;;;;;;13.48;8.02;;;7.60;94.80;;;;;;5072922;28;20405;-79
2021/04/11 01:51:07;;;;;;;12.50;8.90;;;7.30;94.60;;;;;;5055186;28;20036;-79
2021/04/11 01:53:33;;;;;;;11.27;7.57;;;7.30;95.30;;;;;;5073603;28;20039;-80
2021/04/11 01:55:59;;;;;;;13.90;7.13;;;7.30;94.70;;;;;;5072770;28;20024;-81
2021/04/11 01:58:26;;;;;;;14.77;8.05;;;6.80;96.40;;;;;;5073673;28;20029;-79
2021/04/11 02:01:30;;;;;;;14.85;7.82;;;6.60;97.80;;;;;;5055662;28;20474;-80
2021/04/11 02:03:58;;;;;;;11.18;6.72;;;7.10;96.30;;;;;;5050852;28;20044;-79
2021/04/11 02:06:25;;;;;;;9.68;7.53;;;6.60;96.70;;;;;;5072941;28;20024;-79
2021/04/11 02:09:05;;;;;;;16.13;7.70;;;6.30;97.70;;;;;;5073442;28;20017;-78
2021/04/11 02:11:33;;;;;;;10.70;6.97;;;6.80;97.30;;;;;;5072750;28;20436;-78
2021/04/11 02:13:59;;;;;;;13.40;8.05;;;7.20;96.40;;;;;;5073216;28;20020;-78
2021/04/11 02:16:27;;;;;;;11.45;7.65;;;7.30;96.80;;;;;;5072600;28;20020;-78
2021/04/11 02:19:01;;;;;;;10.88;7.53;;;7.50;96.30;;;;;;5073665;28;20020;-79
2021/04/11 02:21:28;;;;;;;11.55;7.10;;;6.70;96.60;;;;;;5066412;28;20033;-79
2021/04/11 02:23:53;;;;;;;9.98;6.85;;;6.80;97.70;;;;;;5053415;28;20013;-78
2021/04/11 02:26:20;;;;;;;12.48;7.13;;;6.10;99.40;;;;;;5052457;28;20075;-80
2021/04/11 02:28:45;;;;;;;11.20;7.03;;;6.00;99.90;;;;;;5053102;28;20025;-78
2021/04/11 02:31:19;;;;;;;10.45;6.72;;;6.60;99.80;;;;;;5035338;28;20456;-79
2021/04/11 02:33:47;;;;;;;12.38;7.25;;;6.20;99.90;;;;;;5052396;28;20367;-80
2021/04/11 02:36:14;;;;;;;9.82;7.55;;;6.60;99.30;;;;;;5035312;28;20413;-79
2021/04/11 02:38:40;;;;;;;11.35;7.68;;;6.30;99.90;;;;;;5034664;28;20418;-81
2021/04/11 02:41:06;;;;;;;9.82;7.30;;;5.70;99.90;;;;;;5035476;28;20029;-83
2021/04/11 02:43:32;;;;;;;13.73;8.15;;;5.70;99.90;;;;;;5034211;28;20032;-81
2021/04/11 02:45:58;;;;;;;16.52;8.80;;;6.00;99.90;;;;;;5052911;28;20057;-81
2021/04/11 02:48:24;;;;;;;11.98;8.48;;;5.40;99.90;;;;;;5052113;28;20021;-80
2021/04/11 02:50:50;;;;;;;12.57;8.05;;;5.30;99.90;;;;;;5052926;28;20063;-83
2021/04/11 02:53:19;;;;;;;18.50;8.60;;;5.30;99.90;;;;;;5051930;28;20024;-79
2021/04/11 02:55:45;;;;;;;13.23;7.82;;;5.20;99.90;;;;;;5034946;28;20025;-79
2021/04/11 02:58:17;;;;;;;14.88;8.13;;;5.30;99.90;;;;;;5052257;28;20045;-79
2021/04/11 03:00:47;;;;;;;10.75;7.82;;;5.60;99.90;;;;;;5052909;28;20048;-79
2021/04/11 03:03:13;;;;;;;11.98;8.00;;;5.80;99.90;;;;;;5051957;28;20021;-78
2021/04/11 03:05:39;;;;;;;11.10;7.53;;;6.30;99.90;;;;;;5052701;28;20013;-80
2021/04/11 03:08:07;;;;;;;12.98;8.50;;;6.60;99.90;;;;;;5034109;28;20020;-81
2021/04/11 03:11:13;;;;;;;10.68;8.02;;;6.70;99.90;;;;;;5034430;28;20032;-80
2021/04/11 03:13:42;;;;;;;11.75;6.85;;;6.90;99.40;;;;;;5051263;28;20052;-80
2021/04/11 03:16:08;;;;;;;11.48;7.57;;;6.60;99.30;;;;;;5034170;28;20025;-78
2021/04/11 03:18:35;;;;;;;12.07;8.07;;;6.70;99.00;;;;;;5033511;28;20524;-79
2021/04/11 03:21:06;;;;;;;12.48;6.88;;;6.30;99.90;;;;;;5033909;28;20029;-78
2021/04/11 03:23:32;;;;;;;12.13;7.40;;;6.00;99.90;;;;;;5051506;28;20341;-78
2021/04/11 03:26:16;;;;;;;10.10;7.63;;;5.90;99.90;;;;;;5034252;28;20360;-80
2021/04/11 03:28:51;;;;;;;12.60;7.70;;;6.30;99.90;;;;;;5051236;28;20384;-79
2021/04/11 03:31:45;;;;;;;9.73;7.10;;;6.50;99.90;;;;;;5051613;28;20120;-78
2021/04/11 03:34:14;;;;;;;12.63;7.93;;;6.60;99.60;;;;;;5051635;28;20427;-81
2021/04/11 03:36:43;;;;;;;11.23;7.68;;;6.60;99.30;;;;;;5034365;28;20407;-84
2021/04/11 03:39:20;;;;;;;15.30;8.45;;;6.70;99.40;;;;;;5033644;28;20059;-81
2021/04/11 03:42:09;;;;;;;16.60;9.13;;;6.80;99.70;;;;;;5052103;28;20388;-80
2021/04/11 03:44:42;;;;;;;13.82;9.38;;;6.80;99.90;;;;;;5033726;28;20024;-80
2021/04/11 03:47:21;;;;;;;19.70;11.88;;;6.60;99.90;;;;;;5052027;28;20043;-84
2021/04/11 03:49:56;;;;;;;16.55;11.65;;;6.40;99.90;;;;;;5033443;28;20461;-83
2021/04/11 03:52:33;;;;;;;16.80;11.18;;;6.40;99.90;;;;;;5052080;28;20084;-80
2021/04/11 03:55:03;;;;;;;20.88;13.05;;;6.60;99.90;;;;;;5051913;28;20105;-82
2021/04/11 03:57:51;;;;;;;16.40;12.68;;;6.70;99.90;;;;;;5052061;28;20416;-81
2021/04/11 04:03:48;;;;;;;17.42;11.15;;;6.70;99.90;;;;;;5071487;28;20093;-82
2021/04/11 04:06:28;;;;;;;17.17;11.55;;;6.60;99.90;;;;;;5053850;28;20020;-80
2021/04/11 04:08:53;;;;;;;19.67;12.02;;;6.60;99.90;;;;;;5053160;28;20024;-81
2021/04/11 04:11:51;;;;;;;20.70;12.15;;;6.70;99.90;;;;;;5055791;28;20013;-80
2021/04/11 04:14:29;;;;;;;18.30;11.80;;;6.70;99.90;;;;;;5075369;28;20036;-80
2021/04/11 04:17:22;;;;;;;18.38;11.52;;;6.60;99.90;;;;;;5057681;28;20520;-79
2021/04/11 04:19:48;;;;;;;17.17;11.00;;;6.70;99.90;;;;;;5048562;28;20043;-79
2021/04/11 04:22:55;;;;;;;16.05;10.05;;;6.80;99.90;;;;;;5057421;28;20024;-77
2021/04/11 04:25:56;;;;;;;13.73;10.57;;;6.90;99.90;;;;;;5027910;28;20093;-79
2021/04/11 04:28:25;;;;;;;13.85;9.30;;;6.60;99.90;;;;;;5033179;28;20396;-79
2021/04/11 04:31:18;;;;;;;12.35;9.00;;;6.70;99.90;;;;;;5075311;28;20024;-79
2021/04/11 04:33:57;;;;;;;18.45;8.70;;;6.80;99.90;;;;;;5056563;28;20059;-79
2021/04/11 04:36:38;;;;;;;13.60;8.98;;;6.90;99.90;;;;;;5057425;28;20059;-82
2021/04/11 04:39:12;;;;;;;14.10;9.02;;;6.90;99.90;;;;;;5074399;28;20364;-80
2021/04/11 04:41:47;;;;;;;13.68;8.82;;;7.00;99.90;;;;;;5075144;28;20079;-79
2021/04/11 04:44:13;;;;;;;14.75;8.90;;;7.00;99.90;;;;;;5074272;28;20012;-80
2021/04/11 04:46:54;;;;;;;15.50;8.52;;;7.10;99.90;;;;;;5075012;28;20349;-79
2021/04/11 04:49:36;;;;;;;12.15;8.38;;;7.20;99.90;;;;;;5073846;28;20025;-82
2021/04/11 04:52:34;;;;;;;12.10;9.02;;;7.00;99.90;;;;;;5056863;28;20063;-80
2021/04/11 04:55:29;;;;;;;14.38;8.95;;;6.60;99.90;;;;;;5023139;28;20123;-82
2021/04/11 04:57:59;;;;;;;14.00;9.35;;;6.90;99.90;;;;;;5052290;28;20396;-80
2021/04/11 05:00:35;;;;;;;13.95;8.82;;;7.20;99.90;;;;;;5073260;28;20052;-81
2021/04/11 05:03:15;;;;;;;14.80;8.57;;;7.30;99.90;;;;;;5074359;28;20028;-80
2021/04/11 05:06:05;;;;;;;14.63;9.65;;;7.40;99.90;;;;;;5073841;28;20082;-81
2021/04/11 05:08:39;;;;;;;16.63;9.25;;;7.50;99.90;;;;;;5055865;28;20404;-84
2021/04/11 05:11:15;;;;;;;14.23;8.75;;;7.60;99.50;;;;;;5056663;28;20124;-78
2021/04/11 05:13:52;;;;;;;11.95;9.25;;;7.70;99.10;;;;;;5073783;28;20024;-81
2021/04/11 05:16:26;;;;;;;17.05;10.23;;;7.80;99.00;;;;;;5074693;28;20717;-80
2021/04/11 05:19:01;;;;;;;10.93;8.27;;;7.80;98.70;;;;;;5073572;28;20051;-79
2021/04/11 05:21:36;;;;;;;12.23;9.98;;;7.70;98.60;;;;;;5062210;28;20025;-80
2021/04/11 05:24:22;;;;;;;14.13;10.07;;;7.50;99.20;;;;;;5037519;28;20388;-79
2021/04/11 05:26:58;;;;;;;17.58;9.60;;;7.50;99.50;;;;;;5039142;28;20033;-79
2021/04/11 05:29:38;;;;;;;18.08;10.13;;;7.50;99.40;;;;;;5039170;28;20030;-80
2021/04/11 05:32:05;;;;;;;13.63;10.30;;;7.40;99.80;;;;;;5028536;28;20033;-80
2021/04/11 05:35:14;;;;;;;15.77;10.80;;;7.50;99.90;;;;;;5033302;28;20396;-82
2021/04/11 05:38:17;;;;;;;16.02;11.07;;;7.60;99.90;;;;;;5051221;28;20025;-81
2021/04/11 05:40:55;;;;;;;17.40;10.73;;;7.50;99.90;;;;;;5035185;28;20441;-82
2021/04/11 05:43:39;;;;;;;17.67;11.45;;;7.60;99.90;;;;;;5053689;28;20033;-80
2021/04/11 05:46:08;;;;;;;17.70;11.23;;;7.50;99.90;;;;;;5034077;28;20128;-81
2021/04/11 05:49:03;;;;;;;20.48;11.25;;;7.50;99.90;;;;;;5034582;28;20166;-80
2021/04/11 05:51:53;;;;;;;15.48;10.75;;;7.10;99.90;;;;;;5033805;28;20021;-80
2021/04/11 05:54:21;;;;;;;16.90;10.35;;;6.90;99.90;;;;;;5033582;28;20116;-81
2021/04/11 05:56:55;;;;;;;14.90;9.88;;;7.10;99.90;;;;;;5035022;28;20029;-79
2021/04/11 06:03:22;;;;;;;14.80;10.05;;;7.50;99.90;;;;;;4988419;28;20042;-81
2021/04/11 06:06:04;;;;;;;16.67;10.45;;;7.60;99.90;;;;;;4974748;28;20061;-79
2021/04/11 06:08:37;;;;;;;16.25;10.43;;;7.60;99.90;;;;;;5052185;28;20029;-78
2021/04/11 06:11:11;;;;;;;14.50;9.68;;;7.70;99.90;;;;;;5052306;28;20368;-80
2021/04/11 06:13:45;;;;;;;31.88;18.80;;;8.00;99.90;;;;;;5051085;28;20036;-81
2021/04/11 06:16:17;;;;;;;20.58;12.18;;;8.90;99.90;;;;;;5026631;28;20159;-81
2021/04/11 06:18:46;;;;;;;18.75;12.88;;;8.10;98.60;;;;;;5041864;28;20033;-81
2021/04/11 06:28:09;;;;;;;17.80;10.43;;;8.20;98.10;;;;;;5058210;28;20039;-82
2021/04/11 06:30:46;;;;;;;16.83;10.90;;;8.20;97.70;;;;;;5026325;28;20029;-82
2021/04/11 06:33:31;;;;;;;17.58;10.30;;;8.00;98.80;;;;;;5014646;28;20028;-83
2021/04/11 06:35:56;;;;;;;17.60;10.68;;;7.70;99.10;;;;;;5030819;28;20064;-80
2021/04/11 06:38:33;;;;;;;15.25;9.40;;;8.00;99.30;;;;;;5030077;28;20057;-79
2021/04/11 06:41:23;;;;;;;15.02;10.52;;;8.00;99.40;;;;;;5014166;28;20488;-79
2021/04/11 06:43:58;;;;;;;13.33;9.40;;;8.20;98.70;;;;;;5032945;28;20013;-81
2021/04/11 06:46:56;;;;;;;12.90;9.93;;;8.70;97.00;;;;;;5030799;28;20409;-79
2021/04/11 06:49:31;;;;;;;17.02;10.43;;;9.00;96.10;;;;;;4958965;28;20040;-79
2021/04/11 06:52:41;;;;;;;17.88;10.45;;;8.30;97.30;;;;;;5013526;28;20029;-79
2021/04/11 06:55:10;;;;;;;16.30;9.68;;;8.70;97.00;;;;;;5013707;28;20057;-79
2021/04/11 06:57:54;;;;;;;14.40;10.25;;;8.70;96.30;;;;;;5031917;28;20025;-79
2021/04/11 07:00:29;;;;;;;15.10;8.98;;;9.10;96.40;;;;;;5029820;28;20032;-79
2021/04/11 07:03:15;;;;;;;11.25;8.10;;;9.50;94.40;;;;;;5032008;28;20022;-82
2021/04/11 07:06:23;;;;;;;13.05;8.70;;;9.70;93.70;;;;;;4964174;28;20040;-79
2021/04/11 07:09:28;;;;;;;14.27;9.07;;;9.80;92.40;;;;;;5031388;28;20025;-79
2021/04/11 07:12:25;;;;;;;14.55;9.30;;;9.70;90.60;;;;;;4977713;28;20083;-79
2021/04/11 07:15:21;;;;;;;17.40;10.10;;;10.00;90.40;;;;;;5030742;28;20115;-79
2021/04/11 07:17:55;;;;;;;16.27;10.00;;;10.10;89.70;;;;;;5013133;28;20072;-80
2021/04/11 07:20:48;;;;;;;16.60;9.77;;;10.30;88.60;;;;;;5014656;28;20071;-81
2021/04/11 07:23:35;;;;;;;16.83;9.15;;;10.40;87.80;;;;;;5012549;28;20057;-82
2021/04/11 07:26:04;;;;;;;14.98;9.63;;;10.50;88.10;;;;;;5011751;28;20733;-79
2021/04/11 07:28:48;;;;;;;16.42;10.70;;;10.20;88.10;;;;;;5031846;28;20025;-80
2021/04/11 07:31:46;;;;;;;17.10;10.63;;;10.40;87.90;;;;;;5013129;28;20029;-80
2021/04/11 07:34:17;;;;;;;13.65;10.07;;;10.70;85.00;;;;;;5014027;28;20021;-78
2021/04/11 07:37:11;;;;;;;14.15;10.48;;;10.50;85.30;;;;;;5027464;28;20381;-81
2021/04/11 07:39:47;;;;;;;14.48;9.70;;;10.90;86.70;;;;;;5031566;28;20029;-81
2021/04/11 07:42:27;;;;;;;18.83;11.13;;;11.10;85.90;;;;;;5030262;28;20032;-83
2021/04/11 07:45:23;;;;;;;18.67;13.48;;;11.40;87.60;;;;;;5030338;28;20018;-83
2021/04/11 07:47:58;;;;;;;18.08;11.45;;;11.90;87.40;;;;;;5028566;28;20094;-82
2021/04/11 07:50:50;;;;;;;13.75;9.05;;;11.50;80.70;;;;;;5031198;28;20400;-82
2021/04/11 07:53:38;;;;;;;14.82;8.52;;;11.40;81.60;;;;;;5030503;28;20029;-81
2021/04/11 07:56:25;;;;;;;14.85;9.05;;;11.50;80.00;;;;;;5029749;28;20045;-81
2021/04/11 07:59:10;;;;;;;12.25;8.70;;;11.60;78.60;;;;;;5012620;28;20029;-80
2021/04/11 08:01:56;;;;;;;12.65;8.35;;;11.60;77.00;;;;;;5011584;28;20372;-82
2021/04/11 08:04:37;;;;;;;15.93;9.05;;;11.60;78.20;;;;;;5030692;28;20032;-83
2021/04/11 08:07:32;;;;;;;13.38;8.32;;;11.50;76.30;;;;;;5029618;28;20052;-86
2021/04/11 08:10:32;;;;;;;11.45;7.32;;;11.80;74.80;;;;;;5027978;28;20017;-81
2021/04/11 08:13:29;;;;;;;14.85;7.60;;;11.80;73.50;;;;;;5030277;28;20025;-80
2021/04/11 08:16:07;;;;;;;12.30;7.85;;;12.10;72.50;;;;;;5033008;28;20021;-79
2021/04/11 08:18:36;;;;;;;10.65;7.13;;;12.10;72.80;;;;;;5040845;28;20143;-82
2021/04/11 08:21:22;;;;;;;11.15;7.65;;;12.20;72.50;;;;;;5041085;28;20376;-80
2021/04/11 08:24:10;;;;;;;13.52;6.60;;;12.20;73.00;;;;;;5019552;28;20049;-80
2021/04/11 08:27:16;;;;;;;10.13;7.15;;;12.50;74.90;;;;;;5030834;28;20045;-81
2021/04/11 08:30:20;;;;;;;9.90;7.20;;;12.40;72.60;;;;;;5031661;28;20539;-83
2021/04/11 08:33:15;;;;;;;12.25;7.00;;;12.70;72.70;;;;;;5036841;28;20025;-84
2021/04/11 08:36:12;;;;;;;10.20;6.80;;;12.90;71.20;;;;;;5039275;28;20120;-83
2021/04/11 08:38:51;;;;;;;12.63;6.78;;;13.20;69.40;;;;;;5037798;28;20021;-84
2021/04/11 08:42:09;;;;;;;8.75;6.13;;;13.60;70.10;;;;;;5021252;28;20392;-82
2021/04/11 08:44:51;;;;;;;9.60;5.97;;;14.20;67.80;;;;;;5032190;28;20426;-83
2021/04/11 08:47:41;;;;;;;8.52;6.05;;;14.10;66.40;;;;;;5032381;28;20037;-83
2021/04/11 08:50:34;;;;;;;9.88;6.65;;;14.30;65.70;;;;;;5032903;28;20018;-81
2021/04/11 08:53:35;;;;;;;10.02;6.15;;;14.50;65.00;;;;;;5032816;28;20041;-86
2021/04/11 08:56:28;;;;;;;10.27;6.15;;;14.70;65.70;;;;;;5033431;28;20045;-82
2021/04/11 08:59:29;;;;;;;9.35;6.22;;;14.70;65.40;;;;;;5053963;28;20032;-80
2021/04/11 09:01:57;;;;;;;;;;;15.00;64.50;;;;;;5054258;28;20021;-81
2021/04/11 09:04:32;;;;;;;7.65;5.43;;;15.10;62.00;;;;;;5036923;28;19904;-83
2021/04/11 09:07:10;;;;;;;10.35;5.85;;;15.30;60.70;;;;;;5053560;28;20041;-80
2021/04/11 09:10:09;;;;;;;8.20;5.50;;;15.50;60.90;;;;;;5054494;28;20029;-83
2021/04/11 09:13:07;;;;;;;9.57;5.78;;;15.50;60.70;;;;;;5053443;28;20021;-79
2021/04/11 09:16:10;;;;;;;8.18;5.43;;;15.70;60.50;;;;;;5048427;28;20032;-82
2021/04/11 09:19:03;;;;;;;15.02;9.52;;;16.00;58.50;;;;;;5036025;28;20017;-84
2021/04/11 09:22:19;;;;;;;19.48;12.38;;;16.40;61.70;;;;;;5030978;28;20029;-84
2021/04/11 09:24:57;;;;;;;21.15;13.25;;;16.60;60.50;;;;;;5017091;28;20205;-85
2021/04/11 09:31:06;;;;;;;19.88;11.95;;;17.70;58.50;;;;;;4936095;29;20388;-84
2021/04/11 09:41:07;;;;;;;22.85;13.48;;;17.60;53.00;;;;;;5036727;28;20056;-85
2021/04/11 09:44:00;;;;;;;15.95;8.00;;;18.20;53.90;;;;;;5017837;28;20034;-82
2021/04/11 09:46:53;;;;;;;8.07;5.15;;;18.80;50.60;;;;;;5037788;28;20112;-87
2021/04/11 09:49:41;;;;;;;10.10;6.00;;;18.10;51.40;;;;;;5033825;28;20063;-83
2021/04/11 09:52:22;;;;;;;14.45;7.20;;;18.00;52.30;;;;;;5014592;28;20112;-88
2021/04/11 09:58:09;;;;;;;8.27;5.63;;;18.70;52.90;;;;;;5078590;22;20394;-84
2021/04/11 10:00:57;;;;;;;10.13;5.00;;;18.70;49.90;;;;;;5055957;28;20043;-87
2021/04/11 10:03:34;;;;;;;9.02;5.20;;;18.80;49.00;;;;;;5073277;28;20028;-79
2021/04/11 10:06:23;;;;;;;11.50;5.78;;;19.10;49.80;;;;;;5055802;28;20032;-81
2021/04/11 10:09:01;;;;;;;18.30;12.63;;;19.80;50.60;;;;;;5055972;28;20039;-84
2021/04/11 10:11:45;;;;;;;10.68;6.63;;;20.00;47.80;;;;;;5056635;28;20052;-83
2021/04/11 10:14:39;;;;;;;14.82;9.57;;;19.20;46.00;;;;;;5073042;28;20074;-83
2021/04/11 10:20:58;;;;;;;7.43;4.85;;;18.90;47.20;;;;;;5073424;28;20027;-85
2021/04/11 10:23:51;;;;;;;11.38;5.18;;;19.30;47.60;;;;;;5055015;28;20040;-86
2021/04/11 10:26:41;;;;;;;9.05;5.43;;;19.60;47.80;;;;;;5055624;28;20036;-79
2021/04/11 10:29:19;;;;;;;9.75;5.03;;;19.60;47.30;;;;;;5074218;28;20672;-87
2021/04/11 10:31:53;;;;;;;9.27;5.00;;;20.10;47.80;;;;;;5072915;28;20029;-83
2021/04/11 10:34:34;;;;;;;8.95;4.72;;;19.50;47.20;;;;;;5054136;22;20449;-87
2021/04/11 10:37:21;;;;;;;10.23;4.95;;;20.40;48.20;;;;;;5015019;28;20025;-84
2021/04/11 10:40:15;;;;;;;8.73;5.00;;;20.50;45.80;;;;;;5031929;28;20024;-84
2021/04/11 10:43:18;;;;;;;10.77;5.25;;;20.00;46.30;;;;;;5012025;28;20167;-80
2021/04/11 10:46:19;;;;;;;13.98;5.03;;;20.70;46.80;;;;;;5015131;28;20032;-82
2021/04/11 10:49:00;;;;;;;8.13;4.10;;;20.50;47.30;;;;;;5014365;28;20045;-83
2021/04/11 10:51:40;;;;;;;10.73;4.68;;;20.10;45.80;;;;;;5014626;28;20447;-84
2021/04/11 10:54:49;;;;;;;6.85;3.95;;;20.40;45.40;;;;;;5014376;28;20124;-85
2021/04/11 10:57:29;;;;;;;6.25;3.88;;;20.60;43.90;;;;;;5014290;28;20099;-83
2021/04/11 10:59:55;;;;;;;6.88;3.45;;;20.50;42.00;;;;;;5014032;28;20017;-84
2021/04/11 11:02:48;;;;;;;7.65;4.07;;;21.20;43.60;;;;;;5031969;28;20037;-85
2021/04/11 11:05:51;;;;;;;8.50;4.05;;;21.70;43.40;;;;;;5031542;28;20030;-84
2021/04/11 11:08:23;;;;;;;6.22;3.72;;;21.20;42.40;;;;;;5030751;28;20135;-82
2021/04/11 11:11:11;;;;;;;7.80;4.53;;;21.70;42.80;;;;;;5018023;28;20025;-79
2021/04/11 11:14:02;;;;;;;8.70;3.78;;;21.50;41.80;;;;;;5027945;28;20026;-80
2021/04/11 11:16:41;;;;;;;6.72;4.00;;;21.00;43.80;;;;;;5022165;28;20024;-79
2021/04/11 11:19:36;;;;;;;18.07;11.60;;;21.90;44.10;;;;;;5011816;28;20436;-79
2021/04/11 11:22:27;;;;;;;7.43;4.00;;;20.90;41.50;;;;;;4996297;28;20128;-80
2021/04/11 11:24:58;;;;;;;6.70;3.60;;;19.90;41.30;;;;;;4994294;28;20109;-81
2021/04/11 11:27:42;;;;;;;5.88;3.22;;;20.30;41.00;;;;;;5019321;28;20029;-81
2021/04/11 11:30:13;;;;;;;5.55;3.47;;;20.40;41.70;;;;;;5017897;28;20025;-78
2021/04/11 11:32:51;;;;;;;6.88;3.50;;;20.40;41.80;;;;;;5011167;28;20052;-81
2021/04/11 11:35:18;;;;;;;6.63;3.22;;;20.50;41.90;;;;;;5009613;28;20037;-83
2021/04/11 11:38:06;;;;;;;6.00;3.20;;;20.30;40.90;;;;;;5011184;28;20022;-80
2021/04/11 11:41:03;;;;;;;6.43;3.50;;;20.10;41.30;;;;;;4999392;28;20026;-79
2021/04/11 11:43:54;;;;;;;7.80;3.53;;;20.20;41.30;;;;;;4986668;28;20029;-77
2021/04/11 11:46:47;;;;;;;6.72;3.40;;;20.10;42.20;;;;;;5009354;28;20034;-78
2021/04/11 11:49:21;;;;;;;5.38;2.90;;;20.80;42.80;;;;;;5009123;28;20107;-82
2021/04/11 11:52:14;;;;;;;6.70;3.00;;;21.50;40.10;;;;;;5011274;28;20040;-78
2021/04/11 11:54:58;;;;;;;5.20;3.03;;;22.20;40.20;;;;;;5009899;28;20068;-81
2021/04/11 11:57:43;;;;;;;6.68;3.03;;;22.20;39.80;;;;;;5008042;28;20079;-78
2021/04/11 12:00:26;;;;;;;6.00;3.05;;;21.00;39.80;;;;;;5009236;28;20026;-80
2021/04/11 12:03:10;;;;;;;6.75;3.38;;;20.60;39.80;;;;;;5007282;28;20409;-79
2021/04/11 12:06:04;;;;;;;6.05;2.90;;;20.40;40.00;;;;;;4993391;28;20129;-80
2021/04/11 12:09:05;;;;;;;6.93;3.20;;;20.30;40.10;;;;;;4996277;28;20041;-78
2021/04/11 12:11:54;;;;;;;6.07;2.90;;;20.40;39.40;;;;;;5010207;28;20048;-80
2021/04/11 12:14:29;;;;;;;7.18;2.95;;;20.70;39.30;;;;;;5008537;28;20141;-80
2021/04/11 12:17:23;;;;;;;6.75;2.85;;;20.50;37.90;;;;;;4994629;28;20041;-82
2021/04/11 12:20:07;;;;;;;21.35;13.60;;;20.60;38.80;;;;;;4996791;28;20030;-78
2021/04/11 12:22:55;;;;;;;19.27;13.40;;;20.60;38.60;;;;;;5009813;28;20026;-80
2021/04/11 12:25:26;;;;;;;6.90;3.35;;;20.30;39.10;;;;;;4948166;28;20045;-77
2021/04/11 12:27:53;;;;;;;5.40;2.92;;;20.50;38.70;;;;;;5007872;28;20084;-76
2021/04/11 12:30:33;;;;;;;5.50;3.00;;;20.80;38.20;;;;;;5002331;28;20030;-78
2021/04/11 12:33:40;;;;;;;5.75;3.05;;;20.80;39.00;;;;;;5014486;28;20037;-80
2021/04/11 12:36:38;;;;;;;7.13;3.38;;;20.60;39.00;;;;;;5014387;28;20586;-78
2021/04/11 12:39:28;;;;;;;5.35;3.30;;;20.50;39.80;;;;;;5016899;28;20049;-78
2021/04/11 12:42:12;;;;;;;13.60;3.25;;;20.30;38.80;;;;;;5016856;28;20477;-79
2021/04/11 12:44:43;;;;;;;6.93;3.20;;;20.10;39.60;;;;;;5034146;28;20048;-77
2021/04/11 12:47:40;;;;;;;5.43;3.17;;;20.60;40.20;;;;;;5034392;28;20034;-78
2021/04/11 12:50:25;;;;;;;8.05;4.47;;;20.70;39.00;;;;;;5034247;28;20076;-79
2021/04/11 12:52:55;;;;;;;7.65;3.95;;;20.40;40.20;;;;;;5016399;28;20381;-78
2021/04/11 12:55:29;;;;;;;6.18;3.80;;;20.50;39.60;;;;;;5034391;28;20072;-80
2021/04/11 12:58:05;;;;;;;7.13;4.07;;;20.80;39.30;;;;;;5034068;28;20026;-78
2021/04/11 13:00:35;;;;;;;6.07;3.70;;;20.70;38.90;;;;;;5033950;28;20026;-79
2021/04/11 13:03:12;;;;;;;6.35;3.45;;;20.60;38.80;;;;;;5033943;28;20105;-78
2021/04/11 13:05:56;;;;;;;7.65;4.10;;;20.50;38.50;;;;;;5034028;28;20139;-80
2021/04/11 13:08:22;;;;;;;7.60;3.58;;;20.40;38.80;;;;;;5033843;28;20026;-78
2021/04/11 13:10:54;;;;;;;8.93;3.35;;;20.70;38.80;;;;;;5033308;28;20017;-77
2021/04/11 13:13:26;;;;;;;7.43;3.70;;;21.00;38.10;;;;;;5033890;28;20025;-75
2021/04/11 13:16:26;;;;;;;7.38;3.33;;;21.50;39.00;;;;;;5033362;28;20095;-76
2021/04/11 13:19:15;;;;;;;8.40;4.20;;;21.70;37.80;;;;;;5033661;28;20080;-78
2021/04/11 13:21:52;;;;;;;8.05;3.42;;;22.00;37.30;;;;;;5001322;28;20116;-79
2021/04/11 13:24:18;;;;;;;7.38;3.78;;;22.00;37.50;;;;;;5020994;28;20477;-79
2021/04/11 13:26:59;;;;;;;7.32;3.78;;;22.40;37.30;;;;;;5012140;28;20026;-80
2021/04/11 13:29:53;;;;;;;7.00;4.18;;;22.90;36.60;;;;;;5012781;28;20018;-79
2021/04/11 13:32:51;;;;;;;8.13;4.10;;;22.70;35.80;;;;;;5011493;28;20076;-82
2021/04/11 13:35:34;;;;;;;8.35;3.55;;;23.10;36.50;;;;;;5010141;28;20033;-80
2021/04/11 13:38:07;;;;;;;7.53;3.60;;;22.70;36.60;;;;;;5012829;28;20509;-79
2021/04/11 13:40:36;;;;;;;6.28;3.67;;;23.50;35.80;;;;;;5013781;28;20394;-78
2021/04/11 13:43:01;;;;;;;5.93;3.40;;;24.30;36.30;;;;;;5012476;28;20022;-80
2021/04/11 13:45:46;;;;;;;6.90;3.80;;;24.50;35.10;;;;;;5010519;28;20382;-78
2021/04/11 13:48:11;;;;;;;8.13;3.13;;;25.30;35.50;;;;;;5005463;28;20107;-77
2021/04/11 13:50:59;;;;;;;8.88;4.43;;;25.80;34.70;;;;;;5009509;28;20410;-77
2021/04/11 13:53:47;;;;;;;9.30;4.60;;;25.60;34.40;;;;;;5010544;28;20101;-77
2021/04/11 13:56:21;;;;;;;14.75;9.27;;;25.60;34.90;;;;;;5010332;28;20030;-76
2021/04/11 13:58:57;;;;;;;434.98;232.52;;;25.20;34.00;;;;;;5012816;28;20050;-76
2021/04/11 14:01:49;;;;;;;44.30;26.25;;;25.20;37.00;;;;;;5012355;28;20022;-76
2021/04/11 14:04:35;;;;;;;139.23;73.18;;;25.60;34.10;;;;;;4995450;28;20045;-75
2021/04/11 14:07:20;;;;;;;113.13;57.40;;;26.50;35.50;;;;;;4997178;28;20510;-77
2021/04/11 14:09:59;;;;;;;62.30;31.45;;;27.20;34.70;;;;;;5012877;28;20084;-76
2021/04/11 14:12:45;;;;;;;58.85;40.92;;;27.60;33.50;;;;;;5011850;28;20105;-76
2021/04/11 14:15:13;;;;;;;23.23;15.27;;;27.70;33.40;;;;;;5012823;28;20022;-76
2021/04/11 14:17:59;;;;;;;8.13;5.00;;;29.20;32.30;;;;;;5012285;28;20030;-79
2021/04/11 14:20:37;;;;;;;6.28;3.45;;;30.70;31.00;;;;;;5013042;28;20034;-81